Time;durP1;ratioP1;P1;durP2;ratioP2;P2;SDS_P1;SDS_P2;PMS_P1;PMS_P2;Temp;Humidity;BMP_temperature;BMP_pressure;BME280_temperature;BME280_humidity;BME280_pressure;Samples;Min_cycle;Max_cycle;Signal;HPM_P1;HPM_P2
2021/11/13 00:01:32;;;;;;;18.63;9.68;;;5.70;99.90;;;4.09;96.98;100828.66;2567163;30;137456;-39
2021/11/13 00:04:00;;;;;;;17.10;9.68;;;5.70;99.90;;;4.11;97.28;100826.63;2567143;30;138251;-39
2021/11/13 00:06:28;;;;;;;17.95;10.07;;;5.80;99.90;;;4.21;96.70;100828.28;2567082;30;138706;-39
2021/11/13 00:08:56;;;;;;;15.75;8.98;;;5.80;99.90;;;4.23;96.74;100828.97;2567342;30;137486;-39
2021/11/13 00:11:23;;;;;;;17.38;9.77;;;5.90;99.90;;;4.26;96.66;100825.94;2567507;30;137841;-39
2021/11/13 00:13:54;;;;;;;16.67;9.45;;;5.90;99.90;;;4.29;96.13;100820.19;2566905;30;138606;-39
2021/11/13 00:16:21;;;;;;;18.90;9.95;;;5.90;99.90;;;4.23;95.83;100818.16;2566144;30;138311;-39
2021/11/13 03:17:52;;;;;;;;;;;5.90;99.90;;;4.60;100.00;100657.31;984546;30;2235543669;31
2021/11/13 03:20:29;;;;;;;17.52;8.95;;;6.30;99.90;;;4.56;100.00;100650.56;2570279;30;137736;-38
2021/11/13 03:23:02;;;;;;;20.85;11.48;;;6.30;99.90;;;4.60;100.00;100658.13;2569077;30;137641;-38
2021/11/13 03:25:39;;;;;;;21.65;10.73;;;6.30;99.90;;;4.58;100.00;100649.38;2568119;30;138415;-38
2021/11/13 03:28:14;;;;;;;20.65;11.27;;;6.30;99.90;;;4.59;100.00;100652.94;2567392;30;137773;-38
2021/11/13 03:30:42;;;;;;;22.25;11.45;;;6.30;99.90;;;4.66;100.00;100658.47;2569575;30;138351;-38
2021/11/13 03:33:10;;;;;;;22.70;11.57;;;6.30;99.90;;;4.68;100.00;100653.72;2570612;30;136859;-38
2021/11/13 03:35:37;;;;;;;23.10;12.27;;;6.30;99.90;;;4.74;100.00;100644.91;2571209;30;138435;-38
2021/11/13 03:38:10;;;;;;;22.88;12.00;;;6.40;99.90;;;4.71;100.00;100640.69;2569764;30;137602;-38
2021/11/13 03:40:42;;;;;;;20.33;11.48;;;6.40;99.90;;;4.75;100.00;100646.56;2568278;30;138300;-38
2021/11/13 03:43:10;;;;;;;24.85;11.40;;;6.40;99.90;;;4.75;100.00;100644.69;2569076;30;137453;-38
2021/11/13 03:45:40;;;;;;;21.95;12.55;;;6.40;99.90;;;4.73;100.00;100643.22;2570725;30;138391;-38
2021/11/13 03:48:07;;;;;;;28.15;12.80;;;6.40;99.90;;;4.72;100.00;100649.63;2570475;30;137520;-38
2021/11/13 03:50:35;;;;;;;21.55;12.48;;;6.40;99.90;;;4.66;100.00;100636.84;2570386;30;138302;-38
2021/11/13 03:53:05;;;;;;;23.30;12.45;;;6.40;99.90;;;4.70;100.00;100657.91;2568322;30;137470;-38
2021/11/13 03:55:34;;;;;;;20.30;12.32;;;6.40;99.90;;;4.71;100.00;100653.38;2570250;30;138537;-38
2021/11/13 03:58:03;;;;;;;23.38;12.48;;;6.40;99.90;;;4.70;100.00;100649.81;2569848;30;137655;-37
2021/11/13 04:00:32;;;;;;;23.52;12.45;;;6.40;99.90;;;4.78;100.00;100643.50;2568589;30;139223;-38
2021/11/13 04:03:00;;;;;;;23.98;11.93;;;6.40;99.90;;;4.78;100.00;100638.09;2570835;30;136756;-38
2021/11/13 04:05:27;;;;;;;;;;;6.40;99.90;;;4.79;100.00;100639.78;2569534;30;138284;-38
2021/11/13 04:07:56;;;;;;;23.95;12.15;;;6.40;99.90;;;4.74;100.00;100643.03;2570731;30;137804;-38
2021/11/13 04:10:24;;;;;;;;;;;6.40;99.90;;;4.76;100.00;100634.75;2570516;30;139205;-38
2021/11/13 04:12:52;;;;;;;22.65;11.70;;;6.40;99.90;;;4.80;100.00;100636.06;2569247;30;136959;-38
2021/11/13 04:15:20;;;;;;;25.77;11.50;;;6.50;99.90;;;4.83;100.00;100634.88;2568862;30;138197;-37
2021/11/13 04:17:49;;;;;;;;;;;6.50;99.90;;;4.81;100.00;100643.16;2568715;30;136955;-38
2021/11/13 04:20:18;;;;;;;22.73;11.18;;;6.50;99.90;;;4.86;100.00;100639.91;2570964;30;139909;-38
2021/11/13 04:22:49;;;;;;;22.80;12.45;;;6.50;99.90;;;4.88;100.00;100644.09;2570648;30;137730;-38
2021/11/13 04:25:19;;;;;;;22.92;12.40;;;6.50;99.90;;;4.88;100.00;100637.88;2568736;30;138461;-37
2021/11/13 04:27:50;;;;;;;26.58;12.43;;;6.50;99.90;;;4.88;100.00;100638.69;2568935;30;137612;-38
2021/11/13 04:30:19;;;;;;;27.17;13.45;;;6.60;99.90;;;4.90;100.00;100627.72;2569905;30;139028;-38
2021/11/13 04:32:50;;;;;;;24.55;13.07;;;6.50;99.90;;;4.89;100.00;100628.75;2568023;30;137420;-38
2021/11/13 04:35:23;;;;;;;27.35;13.35;;;6.50;99.90;;;4.90;100.00;100622.31;2568334;30;137209;-38
2021/11/13 04:37:58;;;;;;;24.30;12.55;;;6.60;99.90;;;4.92;100.00;100632.97;2566007;30;137767;-38
2021/11/13 04:40:34;;;;;;;22.48;12.73;;;6.60;99.90;;;4.94;100.00;100631.75;2567609;30;137551;-38
2021/11/13 04:43:03;;;;;;;25.05;12.70;;;6.60;99.90;;;4.97;100.00;100638.66;2569054;30;138950;-38
2021/11/13 04:45:31;;;;;;;25.10;13.80;;;6.60;99.90;;;4.97;100.00;100641.38;2569133;30;137175;-38
2021/11/13 04:47:59;;;;;;;;;;;6.60;99.90;;;5.03;100.00;100637.94;2567163;30;138416;-38
2021/11/13 04:50:28;;;;;;;24.70;12.27;;;6.70;99.90;;;4.98;100.00;100633.06;2569134;30;137110;-38
2021/11/13 04:52:56;;;;;;;26.70;13.63;;;6.70;99.90;;;5.03;100.00;100643.34;2568771;30;136954;-38
2021/11/13 04:55:24;;;;;;;28.25;14.07;;;6.60;99.90;;;5.08;100.00;100637.41;2568544;30;139090;-38
2021/11/13 04:57:53;;;;;;;24.05;13.40;;;6.70;99.90;;;5.03;100.00;100636.06;2568735;30;137474;-38
2021/11/13 05:00:26;;;;;;;25.67;13.50;;;6.70;99.90;;;5.04;100.00;100635.06;2569307;30;139027;-38
2021/11/13 05:02:54;;;;;;;28.33;15.00;;;6.70;99.90;;;5.08;100.00;100632.81;2570007;30;137905;-38
2021/11/13 05:05:23;;;;;;;28.90;13.90;;;6.70;99.90;;;5.07;100.00;100636.56;2567445;30;138310;-38
2021/11/13 05:07:51;;;;;;;28.17;14.38;;;6.70;99.90;;;5.11;100.00;100642.44;2570010;30;137546;-38
2021/11/13 05:10:19;;;;;;;;;;;6.70;99.90;;;5.11;100.00;100647.84;2568848;30;138478;-38
2021/11/13 05:12:47;;;;;;;30.83;14.27;;;6.70;99.90;;;5.16;100.00;100651.69;2568779;30;136966;-38
2021/11/13 05:15:17;;;;;;;26.88;14.85;;;6.80;99.90;;;5.15;100.00;100641.06;2570152;30;138439;-38
2021/11/13 05:17:46;;;;;;;27.58;14.75;;;6.80;99.90;;;5.15;100.00;100660.00;2566367;30;137324;-38
2021/11/13 05:20:18;;;;;;;28.13;14.65;;;6.80;99.90;;;5.19;100.00;100650.50;2567621;30;137505;-38
2021/11/13 05:22:48;;;;;;;29.17;15.73;;;6.80;99.90;;;5.21;100.00;100653.03;2568973;30;137487;-38
2021/11/13 05:25:20;;;;;;;32.00;15.05;;;6.80;99.90;;;5.22;100.00;100652.84;2568542;30;138291;-38
2021/11/13 05:27:50;;;;;;;28.10;14.98;;;6.80;99.90;;;5.23;100.00;100653.69;2570616;30;137762;-37
2021/11/13 05:30:21;;;;;;;29.13;15.10;;;6.90;99.90;;;5.23;100.00;100654.50;2569902;30;137271;-38
2021/11/13 05:32:49;;;;;;;29.58;15.07;;;6.90;99.90;;;5.24;100.00;100658.91;2569535;30;137889;-38
2021/11/13 05:35:18;;;;;;;29.63;15.50;;;6.80;99.90;;;5.27;100.00;100647.72;2570130;30;137879;-38
2021/11/13 05:37:48;;;;;;;26.88;13.73;;;6.90;99.90;;;5.31;100.00;100648.19;2569801;30;137685;-38
2021/11/13 05:40:16;;;;;;;28.50;14.38;;;6.90;99.90;;;5.36;100.00;100655.78;2569442;30;138371;-38
2021/11/13 05:42:45;;;;;;;26.85;14.43;;;6.90;99.90;;;5.29;100.00;100642.13;2571005;30;137194;-38
2021/11/13 05:45:14;;;;;;;26.75;14.20;;;7.00;99.90;;;5.30;100.00;100647.38;2567641;30;138312;-38
2021/11/13 05:47:42;;;;;;;26.20;13.93;;;6.90;99.90;;;5.29;100.00;100648.38;2567403;30;137604;-38
2021/11/13 05:50:13;;;;;;;30.20;14.63;;;6.90;99.90;;;5.29;100.00;100645.66;2569340;30;138984;-38
2021/11/13 05:52:43;;;;;;;32.67;14.80;;;6.90;99.90;;;5.35;100.00;100643.28;2570370;30;136762;-38
2021/11/13 05:55:13;;;;;;;27.23;15.05;;;6.90;99.90;;;5.31;100.00;100651.75;2570590;30;138245;-38
2021/11/13 05:57:41;;;;;;;27.13;14.82;;;6.90;99.90;;;5.27;100.00;100647.72;2569011;30;138434;-38
2021/11/13 06:00:15;;;;;;;28.08;14.63;;;6.90;99.90;;;5.31;100.00;100659.03;2570161;30;137969;-38
2021/11/13 06:02:43;;;;;;;24.45;13.55;;;6.90;99.90;;;5.24;100.00;100648.06;2568648;30;137883;-38
2021/11/13 06:05:11;;;;;;;25.83;13.75;;;6.90;99.90;;;5.29;100.00;100656.47;2570142;30;138726;-38
2021/11/13 06:07:40;;;;;;;27.35;14.63;;;6.90;99.90;;;5.32;100.00;100649.88;2570015;30;136998;-38
2021/11/13 06:10:10;;;;;;;28.38;15.00;;;6.90;99.90;;;5.28;100.00;100649.38;2571523;30;139099;-38
2021/11/13 06:12:38;;;;;;;26.52;14.05;;;6.90;99.90;;;5.26;100.00;100645.22;2572890;30;138271;-38
2021/11/13 06:15:06;;;;;;;;;;;6.90;99.90;;;5.36;100.00;100655.78;2569479;30;139191;-37
2021/11/13 06:17:35;;;;;;;28.85;13.63;;;7.00;99.90;;;5.33;100.00;100656.97;2570982;30;136914;-38
2021/11/13 06:20:06;;;;;;;28.02;14.48;;;7.00;99.90;;;5.35;100.00;100662.22;2569727;30;139193;-38
2021/11/13 06:22:35;;;;;;;24.15;13.77;;;7.00;99.90;;;5.34;100.00;100658.66;2570239;30;137595;-38
2021/11/13 06:25:08;;;;;;;27.08;14.30;;;7.00;99.90;;;5.29;100.00;100656.47;2566721;30;138271;-38
2021/11/13 06:27:36;;;;;;;26.95;14.20;;;7.00;99.90;;;5.37;100.00;100658.28;2570809;30;137849;-38
2021/11/13 06:30:07;;;;;;;28.40;14.45;;;7.00;99.90;;;5.37;100.00;100668.28;2570065;30;138695;-38
2021/11/13 06:32:34;;;;;;;29.27;15.45;;;7.00;99.90;;;5.43;100.00;100671.06;2569668;30;136970;-38
2021/11/13 06:35:05;;;;;;;24.55;13.50;;;7.00;99.90;;;5.39;100.00;100674.34;2568219;30;138528;-38
2021/11/13 06:37:32;;;;;;;28.35;14.10;;;7.00;99.90;;;5.44;100.00;100669.22;2566541;30;138855;-38
2021/11/13 06:40:00;;;;;;;28.45;14.43;;;7.00;99.90;;;5.42;100.00;100685.63;2570683;30;138221;-38
2021/11/13 06:42:28;;;;;;;31.98;15.07;;;7.00;99.90;;;5.45;100.00;100681.72;2571749;30;136985;-38
2021/11/13 06:44:55;;;;;;;29.58;15.27;;;7.00;99.90;;;5.53;100.00;100678.94;2569069;30;139071;-41
2021/11/13 06:47:23;;;;;;;26.73;13.88;;;7.10;99.90;;;5.49;100.00;100679.50;2569704;30;137069;-38
2021/11/13 06:49:54;;;;;;;28.20;14.30;;;7.10;99.90;;;5.47;100.00;100685.94;2570806;30;138180;-38
2021/11/13 06:52:22;;;;;;;27.73;14.95;;;7.10;99.90;;;5.47;100.00;100685.94;2569333;30;137656;-38
2021/11/13 06:54:49;;;;;;;29.38;14.88;;;7.10;99.90;;;5.55;100.00;100686.91;2569951;30;138006;-38
2021/11/13 06:57:17;;;;;;;28.80;15.75;;;7.20;99.90;;;5.52;100.00;100690.78;2568689;30;137185;-38
2021/11/13 06:59:45;;;;;;;33.25;15.90;;;7.10;99.90;;;5.51;100.00;100691.81;2570334;30;138540;-38
2021/11/13 07:02:12;;;;;;;25.35;14.32;;;7.10;99.90;;;5.56;100.00;100691.28;2568079;30;138090;-38
2021/11/13 07:04:40;;;;;;;31.02;15.27;;;7.10;99.90;;;5.54;100.00;100698.75;2571019;30;138269;-38
2021/11/13 07:07:08;;;;;;;27.75;14.18;;;7.10;99.90;;;5.53;100.00;100699.78;2568736;30;136972;-38
2021/11/13 07:09:37;;;;;;;27.10;14.48;;;7.10;99.90;;;5.58;100.00;100700.06;2568804;30;138262;-38
2021/11/13 07:12:06;;;;;;;29.13;15.38;;;7.20;99.90;;;5.56;100.00;100704.81;2570326;30;137694;-37
2021/11/13 07:14:34;;;;;;;33.80;15.52;;;7.20;99.90;;;5.54;100.00;100702.28;2570116;30;137309;-37
2021/11/13 07:17:03;;;;;;;31.23;15.35;;;7.20;99.90;;;5.61;100.00;100710.53;2569309;30;137525;-38
2021/11/13 07:19:30;;;;;;;30.27;16.08;;;7.20;99.90;;;5.68;100.00;100711.47;2566690;30;138396;-38
2021/11/13 07:21:58;;;;;;;25.75;14.43;;;7.30;99.90;;;5.71;100.00;100713.84;2568882;30;137405;-38
2021/11/13 07:24:26;;;;;;;;;;;7.30;99.90;;;5.70;100.00;100714.84;2568827;30;137716;-37
2021/11/13 07:26:53;;;;;;;30.00;15.43;;;7.30;99.90;;;5.69;100.00;100717.72;2570010;30;136952;-38
2021/11/13 07:29:25;;;;;;;30.20;15.70;;;7.30;99.90;;;5.72;100.00;100720.06;2570544;30;137440;-38
2021/11/13 07:31:53;;;;;;;29.30;15.32;;;7.30;99.90;;;5.71;100.00;100718.38;2568940;30;136835;-38
2021/11/13 07:34:22;;;;;;;30.63;15.30;;;7.30;99.90;;;5.79;100.00;100718.31;2569038;30;138580;-37
2021/11/13 07:36:50;;;;;;;32.78;16.20;;;7.40;99.90;;;5.83;100.00;100716.91;2570366;30;138593;-38
2021/11/13 07:39:17;;;;;;;30.25;15.77;;;7.40;99.90;;;5.87;100.00;100720.97;2567391;30;138401;-38
2021/11/13 07:41:45;;;;;;;29.70;15.07;;;7.50;99.90;;;5.85;100.00;100725.72;2568490;30;137402;-38
2021/11/13 07:44:14;;;;;;;32.17;16.45;;;7.50;99.90;;;5.86;100.00;100721.97;2569243;30;140243;-38
2021/11/13 07:46:42;;;;;;;32.10;15.18;;;7.50;99.90;;;5.90;100.00;100723.28;2569243;30;137120;-38
2021/11/13 07:49:11;;;;;;;28.48;15.20;;;7.50;99.90;;;5.90;100.00;100728.72;2569899;30;138606;-38
2021/11/13 07:51:39;;;;;;;32.42;14.68;;;7.50;99.90;;;6.00;100.00;100733.00;2569540;30;136838;-38
2021/11/13 07:54:10;;;;;;;31.00;15.32;;;7.50;99.90;;;6.02;100.00;100734.56;2568615;30;138351;-38
2021/11/13 07:56:37;;;;;;;28.17;14.95;;;7.60;99.90;;;6.04;100.00;100737.06;2569126;30;138335;-37
2021/11/13 07:59:07;;;;;;;28.00;14.27;;;7.60;99.90;;;6.06;100.00;100735.00;2568597;30;138354;-38
2021/11/13 08:01:34;;;;;;;27.00;14.48;;;7.60;99.90;;;6.03;100.00;100736.22;2569670;30;137634;-38
2021/11/13 08:04:02;;;;;;;27.10;13.63;;;7.60;99.90;;;6.04;100.00;100728.94;2568716;30;138126;-38
2021/11/13 08:06:29;;;;;;;26.02;12.45;;;7.70;99.90;;;6.06;100.00;100736.88;2566416;30;138223;-38
2021/11/13 08:08:57;;;;;;;23.27;11.65;;;7.70;99.90;;;6.04;100.00;100734.34;2568775;30;138206;-38
2021/11/13 08:11:25;;;;;;;25.95;13.45;;;7.60;99.90;;;6.12;100.00;100736.13;2569875;30;137790;-38
2021/11/13 08:13:52;;;;;;;26.02;12.38;;;7.70;99.90;;;6.17;100.00;100739.97;2568994;30;138412;-37
2021/11/13 08:16:20;;;;;;;22.58;12.25;;;7.70;99.90;;;6.23;100.00;100738.38;2566809;30;137506;-37
2021/11/13 08:18:47;;;;;;;23.40;12.15;;;7.80;99.90;;;6.21;100.00;100742.31;2569367;30;139194;-38
2021/11/13 08:21:15;;;;;;;26.48;12.90;;;7.80;99.90;;;6.22;100.00;100736.69;2566744;30;137558;-37
2021/11/13 08:23:43;;;;;;;;;;;7.80;99.90;;;6.24;100.00;100736.53;2568987;30;138610;-38
2021/11/13 08:26:11;;;;;;;20.83;11.90;;;7.80;99.90;;;6.28;100.00;100744.09;2569731;30;136753;-38
2021/11/13 08:28:38;;;;;;;26.40;13.50;;;7.80;99.90;;;6.29;100.00;100750.34;2569703;30;137881;-37
2021/11/13 08:31:06;;;;;;;24.40;12.88;;;7.90;99.90;;;6.31;100.00;100740.16;2569427;30;137102;-38
2021/11/13 08:33:33;;;;;;;24.55;12.07;;;7.90;99.90;;;6.35;100.00;100740.66;2569230;30;137907;-37
2021/11/13 08:36:01;;;;;;;22.65;12.55;;;7.90;99.90;;;6.36;100.00;100739.63;2568910;30;137366;-37
2021/11/13 08:38:29;;;;;;;24.67;12.27;;;7.90;99.90;;;6.38;100.00;100749.25;2568366;30;139266;-38
2021/11/13 08:40:58;;;;;;;23.50;12.82;;;8.00;99.90;;;6.38;100.00;100749.25;2568522;30;136969;-38
2021/11/13 08:43:26;;;;;;;24.80;13.32;;;8.00;99.90;;;6.40;100.00;100752.63;2568902;30;136830;-38
2021/11/13 08:45:55;;;;;;;33.47;15.98;;;8.00;99.90;;;6.46;100.00;100751.88;2569959;30;136723;-38
2021/11/13 08:48:25;;;;;;;25.17;13.00;;;8.00;99.90;;;6.48;100.00;100760.63;2569306;30;137344;-38
2021/11/13 08:50:53;;;;;;;22.40;11.98;;;8.00;99.90;;;6.54;100.00;100758.22;2567931;30;137457;-38
2021/11/13 08:53:21;;;;;;;;;;;8.10;99.90;;;6.57;100.00;100758.69;2569164;30;137498;-38
2021/11/13 08:55:48;;;;;;;21.35;12.07;;;8.10;99.90;;;6.64;100.00;100763.34;2569287;30;137582;-38
2021/11/13 08:58:16;;;;;;;25.17;13.90;;;8.20;99.90;;;6.74;100.00;100767.47;2568829;30;137455;-38
2021/11/13 09:00:55;;;;;;;23.90;12.73;;;8.30;99.90;;;6.79;100.00;100764.19;2567426;30;137441;-37
2021/11/13 09:03:38;;;;;;;25.97;12.83;;;8.30;99.90;;;6.80;100.00;100765.88;2568912;30;139213;-37
2021/11/13 09:06:21;;;;;;;23.98;11.75;;;8.30;99.90;;;6.74;100.00;100764.75;2566211;30;137746;-38
2021/11/13 09:08:50;;;;;;;23.40;12.77;;;8.30;99.90;;;6.78;100.00;100770.63;2568696;30;137484;-38
2021/11/13 09:11:24;;;;;;;21.52;12.18;;;8.30;99.90;;;6.78;100.00;100761.66;2568857;30;138446;-38
2021/11/13 09:13:52;;;;;;;20.63;12.23;;;8.30;99.90;;;6.88;100.00;100763.03;2568565;30;138317;-38
2021/11/13 09:16:21;;;;;;;19.58;11.73;;;8.40;99.90;;;6.90;100.00;100760.16;2567937;30;137585;-38
2021/11/13 09:18:50;;;;;;;23.05;12.75;;;8.40;99.90;;;6.91;100.00;100759.13;2572740;30;138386;-39
2021/11/13 09:21:19;;;;;;;21.77;11.57;;;8.40;99.90;;;6.94;100.00;100766.88;2565681;30;137296;-39
2021/11/13 09:23:48;;;;;;;19.45;11.75;;;8.50;99.90;;;6.95;100.00;100773.97;2568937;30;137418;-39
2021/11/13 09:26:16;;;;;;;19.20;10.65;;;8.50;99.90;;;6.90;100.00;100768.28;2568027;30;138245;-40
2021/11/13 09:28:44;;;;;;;;;;;8.50;99.90;;;6.98;100.00;100773.59;2568240;30;137330;-39
2021/11/13 09:31:12;;;;;;;21.85;10.95;;;8.50;99.90;;;7.03;100.00;100775.75;2567261;30;137302;-39
2021/11/13 09:33:39;;;;;;;;;;;8.50;99.90;;;7.06;100.00;100780.78;2565850;30;138681;-39
2021/11/13 09:36:08;;;;;;;18.75;10.38;;;8.50;99.90;;;7.12;100.00;100773.75;2567846;30;137186;-39
2021/11/13 09:38:45;;;;;;;19.65;10.25;;;8.60;99.90;;;7.24;100.00;100776.81;2567394;30;138421;-40
2021/11/13 09:41:15;;;;;;;17.83;10.27;;;8.70;99.90;;;7.37;100.00;100773.38;2567252;30;136790;-39
2021/11/13 09:43:43;;;;;;;20.13;10.90;;;8.80;99.90;;;7.51;100.00;100777.94;2568141;30;137257;-39
2021/11/13 09:46:12;;;;;;;23.33;10.93;;;8.90;99.90;;;7.59;100.00;100779.69;2568268;30;137719;-39
2021/11/13 09:48:41;;;;;;;19.63;11.07;;;9.00;99.90;;;7.69;100.00;100782.06;2567732;30;138297;-39
2021/11/13 09:51:11;;;;;;;22.10;11.27;;;9.10;99.90;;;7.77;100.00;100787.38;2567657;30;137607;-40
2021/11/13 09:53:39;;;;;;;18.65;10.10;;;9.20;99.90;;;7.83;100.00;100780.34;2568279;30;140999;-40
2021/11/13 09:56:10;;;;;;;22.88;12.48;;;9.30;99.90;;;8.00;100.00;100776.28;2567599;30;138181;-39
2021/11/13 09:58:38;;;;;;;17.52;10.05;;;9.40;99.90;;;8.12;100.00;100773.88;2567671;30;138413;-40
2021/11/13 10:01:07;;;;;;;17.42;10.43;;;9.50;99.90;;;8.23;100.00;100774.38;2567566;30;137704;-39
2021/11/13 10:03:37;;;;;;;21.58;10.93;;;9.60;99.90;;;8.37;100.00;100778.84;2568336;30;136912;-39
2021/11/13 10:06:12;;;;;;;17.73;10.18;;;9.70;99.90;;;8.55;100.00;100780.25;2567523;30;137172;-40
2021/11/13 10:08:46;;;;;;;17.08;10.40;;;9.80;99.90;;;8.68;100.00;100771.34;2567569;30;138465;-40
2021/11/13 10:11:20;;;;;;;17.80;9.45;;;10.00;99.90;;;8.73;100.00;100775.09;2567769;30;138186;-40
2021/11/13 10:13:58;;;;;;;16.30;9.73;;;10.10;99.90;;;8.82;100.00;100769.50;2568610;30;137347;-40
2021/11/13 10:16:42;;;;;;;14.82;9.48;;;10.10;99.90;;;8.87;100.00;100769.75;2567714;30;137943;-39
2021/11/13 10:19:16;;;;;;;17.60;9.50;;;10.20;99.90;;;8.91;100.00;100768.28;2564753;30;138209;-40
2021/11/13 10:21:50;;;;;;;17.20;9.70;;;10.30;99.90;;;8.87;100.00;100764.31;2568118;30;137533;-40
2021/11/13 10:24:25;;;;;;;14.25;8.07;;;10.30;99.90;;;8.83;100.00;100763.84;2564959;30;138081;-40
2021/11/13 10:27:05;;;;;;;12.07;8.02;;;10.20;99.90;;;8.77;100.00;100768.25;2567149;30;138492;-40
2021/11/13 10:29:37;;;;;;;13.50;8.38;;;10.20;99.90;;;8.75;100.00;100767.63;2567830;30;137234;-40
2021/11/13 10:32:12;;;;;;;28.75;13.88;;;10.20;99.90;;;8.68;100.00;100765.88;2567736;30;137591;-40
2021/11/13 10:34:47;;;;;;;20.55;10.77;;;10.20;99.90;;;8.62;100.00;100764.81;2566768;30;137290;-40
2021/11/13 10:37:24;;;;;;;15.05;8.52;;;10.10;99.90;;;8.60;100.00;100769.59;2565457;30;138769;-40
2021/11/13 10:40:00;;;;;;;13.02;8.35;;;10.10;99.90;;;8.59;100.00;100773.38;2568072;30;138344;-40
2021/11/13 10:42:28;;;;;;;15.77;8.52;;;10.00;99.90;;;8.62;100.00;100775.69;2568923;30;138394;-40
2021/11/13 10:45:00;;;;;;;13.00;8.18;;;10.10;99.90;;;8.59;100.00;100778.81;2568552;30;138198;-40
2021/11/13 10:47:33;;;;;;;13.50;8.10;;;10.10;99.90;;;8.60;100.00;100769.59;2568001;30;137925;-40
2021/11/13 10:50:25;;;;;;;11.88;7.43;;;10.10;99.90;;;8.59;100.00;100767.94;2568402;30;137406;-40
2021/11/13 10:53:08;;;;;;;15.73;7.78;;;10.00;99.90;;;8.57;100.00;100775.44;2568605;30;136712;-40
2021/11/13 10:56:07;;;;;;;15.20;8.15;;;10.00;99.90;;;8.65;100.00;100764.41;2566877;30;138318;-40
2021/11/13 10:58:44;;;;;;;25.10;14.10;;;10.10;99.90;;;8.65;100.00;100772.56;2569041;30;136789;-40
2021/11/13 11:01:41;;;;;;;11.32;7.63;;;10.10;99.90;;;8.60;100.00;100766.88;2569728;30;138530;-40
2021/11/13 11:04:16;;;;;;;12.13;7.10;;;10.10;99.90;;;8.56;100.00;100774.59;2568062;30;137355;-40
2021/11/13 11:07:02;;;;;;;14.05;7.68;;;10.00;99.90;;;8.59;100.00;100774.19;2568670;30;138239;-40
2021/11/13 11:09:45;;;;;;;14.40;7.60;;;10.00;99.90;;;8.59;100.00;100770.66;2568111;30;137257;-40
2021/11/13 11:12:21;;;;;;;12.15;6.95;;;10.00;99.90;;;8.59;100.00;100774.19;2568330;30;139109;-40
2021/11/13 11:14:53;;;;;;;12.13;7.13;;;10.00;99.90;;;8.65;100.00;100771.75;2567775;30;138491;-40
2021/11/13 11:17:27;;;;;;;10.65;6.50;;;10.10;99.90;;;8.66;100.00;100779.69;2569381;30;138489;-40
2021/11/13 11:20:05;;;;;;;13.07;7.35;;;10.10;99.90;;;8.68;100.00;100772.16;2568552;30;137756;-40
2021/11/13 11:22:33;;;;;;;11.10;6.30;;;10.10;99.90;;;8.70;100.00;100769.25;2566685;30;138772;-40
2021/11/13 11:25:09;;;;;;;;;;;10.10;99.90;;;8.69;100.00;100776.56;2568132;30;139854;-40
2021/11/13 11:27:43;;;;;;;11.10;6.35;;;10.20;99.90;;;8.77;100.00;100781.00;2568721;30;138270;-40
2021/11/13 11:30:12;;;;;;;11.52;7.28;;;10.20;99.90;;;8.79;100.00;100773.47;2565893;30;138545;-40
2021/11/13 11:32:40;;;;;;;12.43;7.30;;;10.20;99.90;;;8.81;100.00;100779.53;2566050;30;138495;-40
2021/11/13 11:35:14;;;;;;;12.75;6.75;;;10.20;99.90;;;8.78;100.00;100771.78;2567574;30;138412;-40
2021/11/13 11:37:48;;;;;;;12.60;6.75;;;10.20;99.90;;;8.78;100.00;100780.81;2568972;30;138283;-40
2021/11/13 11:40:23;;;;;;;11.07;6.43;;;10.20;99.90;;;8.83;100.00;100771.19;2567996;30;137644;-40
2021/11/13 11:42:51;;;;;;;11.73;6.22;;;10.30;99.90;;;8.90;100.00;100772.06;2569362;30;138229;-40
2021/11/13 11:45:26;;;;;;;11.05;6.35;;;10.30;99.90;;;8.97;100.00;100774.81;2568661;30;138410;-40
2021/11/13 11:47:56;;;;;;;12.15;6.13;;;10.30;99.90;;;9.14;100.00;100776.13;2568514;30;138292;-40
2021/11/13 11:50:28;;;;;;;12.55;6.93;;;10.50;99.90;;;9.16;100.00;100781.38;2568514;30;137556;-40
2021/11/13 11:53:05;;;;;;;13.13;6.65;;;10.50;99.90;;;9.26;100.00;100781.81;2567646;30;137514;-40
2021/11/13 11:55:36;;;;;;;10.73;6.10;;;10.60;99.90;;;9.41;100.00;100772.63;2565694;30;138505;-40
2021/11/13 11:58:17;;;;;;;13.02;7.22;;;10.70;99.90;;;9.53;100.00;100773.69;2567848;30;138446;-40
2021/11/13 12:00:49;;;;;;;11.20;6.47;;;10.80;99.90;;;9.56;100.00;100767.00;2567685;30;137517;-40
2021/11/13 12:03:34;;;;;;;11.57;6.57;;;10.90;99.90;;;9.60;100.00;100771.84;2568247;30;138392;-40
2021/11/13 12:06:03;;;;;;;9.38;6.13;;;10.90;99.90;;;9.66;100.00;100769.34;2565967;30;137600;-40
2021/11/13 12:08:33;;;;;;;13.82;6.65;;;11.00;99.90;;;9.70;100.00;100776.03;2567325;30;139361;-40
2021/11/13 12:11:32;;;;;;;10.48;6.53;;;11.10;99.90;;;9.70;100.00;100781.50;2569408;30;138152;-39
2021/11/13 12:14:28;;;;;;;17.85;6.40;;;11.10;99.90;;;9.71;100.00;100781.28;2568069;30;137335;-40
2021/11/13 12:17:29;;;;;;;9.77;5.97;;;11.10;99.90;;;9.75;100.00;100781.69;2568269;30;138183;-40
2021/11/13 12:20:08;;;;;;;11.05;6.68;;;11.10;99.90;;;9.66;100.00;100778.31;2568722;30;138200;-40
2021/11/13 12:22:39;;;;;;;;;;;11.10;99.90;;;9.64;100.00;100775.81;2567131;30;137894;-40
2021/11/13 12:25:21;;;;;;;8.75;6.05;;;11.00;99.90;;;9.66;100.00;100778.31;2567224;30;138339;-40
2021/11/13 12:28:21;;;;;;;11.88;6.55;;;11.10;99.90;;;9.59;100.00;100778.34;2566865;30;138395;-39
2021/11/13 12:31:07;;;;;;;9.93;6.03;;;11.00;99.90;;;9.58;100.00;100776.66;2570105;30;139338;-39
2021/11/13 12:33:34;;;;;;;10.43;5.95;;;11.00;99.90;;;9.57;100.00;100783.16;2568276;30;138076;-39
2021/11/13 12:36:23;;;;;;;9.02;5.60;;;11.00;99.90;;;9.56;100.00;100772.47;2568582;30;137350;-40
2021/11/13 12:38:54;;;;;;;;;;;11.00;99.90;;;9.52;100.00;100776.66;2569101;30;137332;-40
2021/11/13 12:41:42;;;;;;;11.05;6.07;;;11.00;99.90;;;9.58;100.00;100773.09;2566976;30;139254;-40
2021/11/13 12:44:29;;;;;;;11.32;7.35;;;11.00;99.90;;;9.63;100.00;100774.16;2567786;30;138412;-40
2021/11/13 12:47:32;;;;;;;13.55;8.77;;;11.00;99.90;;;9.59;100.00;100777.50;2569242;30;136884;-40
2021/11/13 12:50:04;;;;;;;13.82;7.93;;;11.00;99.90;;;9.51;100.00;100781.25;2567618;30;137701;-40
2021/11/13 12:52:40;;;;;;;16.90;9.52;;;10.90;99.90;;;9.48;100.00;100778.94;2566790;30;137484;-40
2021/11/13 12:55:24;;;;;;;14.65;8.63;;;10.90;99.90;;;9.45;100.00;100782.94;2567339;30;137141;-40
2021/11/13 12:58:09;;;;;;;11.57;7.50;;;10.90;99.90;;;9.42;100.00;100786.06;2567846;30;139234;-40
2021/11/13 13:00:45;;;;;;;11.75;7.32;;;10.90;99.90;;;9.40;100.00;100784.56;2567559;30;137661;-40
2021/11/13 13:03:24;;;;;;;10.55;6.85;;;10.80;99.90;;;9.36;100.00;100795.03;2567666;30;137370;-40
2021/11/13 13:06:06;;;;;;;13.48;8.07;;;10.80;99.90;;;9.33;100.00;100790.00;2568788;30;137672;-40
2021/11/13 13:08:34;;;;;;;10.20;6.53;;;10.80;99.90;;;9.28;100.00;100795.22;2568149;30;137363;-39
2021/11/13 13:11:05;;;;;;;12.52;7.35;;;10.70;99.90;;;9.27;100.00;100788.09;2565502;30;138066;-40
2021/11/13 13:13:36;;;;;;;13.32;7.72;;;10.70;99.90;;;9.26;100.00;100791.88;2567154;30;138208;-40
2021/11/13 13:16:07;;;;;;;12.25;7.45;;;10.70;99.90;;;9.24;100.00;100797.50;2567856;30;138919;-40
2021/11/13 13:18:38;;;;;;;11.27;7.10;;;10.70;99.90;;;9.23;100.00;100798.56;2567110;30;137900;-40
2021/11/13 13:21:06;;;;;;;12.85;7.30;;;10.70;99.90;;;9.23;100.00;100795.81;2568698;30;137525;-39